sensor_id;sensor_type;location;lat;lon;timestamp;pressure;altitude;pressure_sealevel;temperature;humidity
64388;BME280;50709;52.648;4.764;2023-02-13T00:00:32;103896.44;;;12.30;62.55
64388;BME280;50709;52.648;4.764;2023-02-13T00:02:58;103894.69;;;12.30;62.19
64388;BME280;50709;52.648;4.764;2023-02-13T00:05:23;103900.13;;;12.75;63.01
64388;BME280;50709;52.648;4.764;2023-02-13T00:07:49;103893.34;;;12.59;62.12
64388;BME280;50709;52.648;4.764;2023-02-13T00:10:15;103886.94;;;12.53;62.36
64388;BME280;50709;52.648;4.764;2023-02-13T00:12:40;103892.59;;;12.62;62.39
64388;BME280;50709;52.648;4.764;2023-02-13T00:15:06;103895.34;;;12.45;62.09
64388;BME280;50709;52.648;4.764;2023-02-13T00:17:32;103891.53;;;12.58;62.39
64388;BME280;50709;52.648;4.764;2023-02-13T00:19:58;103885.41;;;12.79;61.72
64388;BME280;50709;52.648;4.764;2023-02-13T00:22:23;103857.03;;;12.69;61.62
64388;BME280;50709;52.648;4.764;2023-02-13T00:24:49;103872.44;;;12.82;61.45
64388;BME280;50709;52.648;4.764;2023-02-13T00:27:14;103865.94;;;12.74;62.08
64388;BME280;50709;52.648;4.764;2023-02-13T00:29:40;103873.00;;;12.96;61.86
64388;BME280;50709;52.648;4.764;2023-02-13T00:32:05;103872.94;;;12.73;62.18
64388;BME280;50709;52.648;4.764;2023-02-13T00:34:30;103859.72;;;12.70;61.79
64388;BME280;50709;52.648;4.764;2023-02-13T00:36:56;103861.16;;;12.85;62.21
64388;BME280;50709;52.648;4.764;2023-02-13T00:39:21;103868.25;;;12.87;61.96
64388;BME280;50709;52.648;4.764;2023-02-13T00:41:47;103861.94;;;12.82;61.80
64388;BME280;50709;52.648;4.764;2023-02-13T00:44:12;103852.94;;;12.75;62.38
64388;BME280;50709;52.648;4.764;2023-02-13T00:46:37;103842.88;;;12.65;62.43
64388;BME280;50709;52.648;4.764;2023-02-13T00:49:03;103855.56;;;12.75;62.02
64388;BME280;50709;52.648;4.764;2023-02-13T00:51:29;103853.75;;;12.74;62.43
64388;BME280;50709;52.648;4.764;2023-02-13T00:53:55;103858.94;;;12.73;62.18
64388;BME280;50709;52.648;4.764;2023-02-13T00:56:20;103859.31;;;12.82;63.53
64388;BME280;50709;52.648;4.764;2023-02-13T00:58:46;103855.63;;;12.77;62.04
64388;BME280;50709;52.648;4.764;2023-02-13T01:01:11;103856.28;;;12.94;62.19
64388;BME280;50709;52.648;4.764;2023-02-13T01:03:37;103838.28;;;12.59;62.22
64388;BME280;50709;52.648;4.764;2023-02-13T01:06:02;103851.69;;;12.67;61.59
64388;BME280;50709;52.648;4.764;2023-02-13T01:08:28;103855.56;;;12.75;63.00
64388;BME280;50709;52.648;4.764;2023-02-13T01:10:54;103820.81;;;12.60;63.00
64388;BME280;50709;52.648;4.764;2023-02-13T01:13:19;103848.25;;;12.68;62.48
64388;BME280;50709;52.648;4.764;2023-02-13T01:15:45;103831.28;;;12.39;63.11
64388;BME280;50709;52.648;4.764;2023-02-13T01:18:13;103861.84;;;12.38;62.93
64388;BME280;50709;52.648;4.764;2023-02-13T01:20:40;103850.34;;;12.35;62.37
64388;BME280;50709;52.648;4.764;2023-02-13T01:23:06;103848.19;;;12.67;62.95
64388;BME280;50709;52.648;4.764;2023-02-13T01:25:32;103859.19;;;12.79;62.56
64388;BME280;50709;52.648;4.764;2023-02-13T01:27:57;103844.97;;;12.74;63.08
64388;BME280;50709;52.648;4.764;2023-02-13T01:30:23;103855.72;;;12.59;62.34
64388;BME280;50709;52.648;4.764;2023-02-13T01:32:48;103845.44;;;12.42;62.87
64388;BME280;50709;52.648;4.764;2023-02-13T01:35:14;103848.00;;;12.62;64.05
64388;BME280;50709;52.648;4.764;2023-02-13T01:37:40;103839.25;;;12.40;62.28
64388;BME280;50709;52.648;4.764;2023-02-13T01:40:10;103853.28;;;12.42;62.28
64388;BME280;50709;52.648;4.764;2023-02-13T01:42:36;103839.16;;;12.39;62.38
64388;BME280;50709;52.648;4.764;2023-02-13T01:45:23;103839.25;;;12.40;62.36
64388;BME280;50709;52.648;4.764;2023-02-13T01:48:15;103842.28;;;12.72;63.23
64388;BME280;50709;52.648;4.764;2023-02-13T01:50:47;103840.00;;;12.59;62.37
64388;BME280;50709;52.648;4.764;2023-02-13T01:53:22;103841.28;;;12.48;62.45
64388;BME280;50709;52.648;4.764;2023-02-13T01:55:55;103845.78;;;12.31;62.33
64388;BME280;50709;52.648;4.764;2023-02-13T01:58:24;103832.19;;;12.39;63.50
64388;BME280;50709;52.648;4.764;2023-02-13T02:00:51;103827.84;;;12.40;63.09
64388;BME280;50709;52.648;4.764;2023-02-13T02:03:21;103837.56;;;12.42;61.66
64388;BME280;50709;52.648;4.764;2023-02-13T02:05:50;103845.75;;;12.50;62.02
64388;BME280;50709;52.648;4.764;2023-02-13T02:08:16;103836.22;;;12.52;62.49
64388;BME280;50709;52.648;4.764;2023-02-13T02:10:43;103845.69;;;12.49;61.88
64388;BME280;50709;52.648;4.764;2023-02-13T02:13:13;103847.94;;;12.39;62.73
64388;BME280;50709;52.648;4.764;2023-02-13T02:15:40;103833.53;;;12.51;63.05
64388;BME280;50709;52.648;4.764;2023-02-13T02:18:13;103829.06;;;12.27;62.09
64388;BME280;50709;52.648;4.764;2023-02-13T02:37:21;103830.53;;;12.41;62.87
64388;BME280;50709;52.648;4.764;2023-02-13T02:40:11;103823.75;;;12.47;62.74
64388;BME280;50709;52.648;4.764;2023-02-13T02:42:56;103801.88;;;12.25;62.43
64388;BME280;50709;52.648;4.764;2023-02-13T02:45:27;103820.34;;;12.28;62.31
64388;BME280;50709;52.648;4.764;2023-02-13T02:48:04;103813.81;;;12.18;62.77
64388;BME280;50709;52.648;4.764;2023-02-13T02:51:14;103823.31;;;12.36;63.14
64388;BME280;50709;52.648;4.764;2023-02-13T02:56:53;103822.44;;;12.16;63.23
64388;BME280;50709;52.648;4.764;2023-02-13T02:59:22;103823.38;;;11.97;62.73
64388;BME280;50709;52.648;4.764;2023-02-13T03:02:09;103803.41;;;12.20;63.40
64388;BME280;50709;52.648;4.764;2023-02-13T03:04:56;103813.28;;;12.06;63.38
64388;BME280;50709;52.648;4.764;2023-02-13T03:07:42;103813.97;;;11.82;63.19
64388;BME280;50709;52.648;4.764;2023-02-13T03:10:15;103784.22;;;11.80;62.97
64388;BME280;50709;52.648;4.764;2023-02-13T03:13:05;103808.66;;;12.20;63.52
64388;BME280;50709;52.648;4.764;2023-02-13T03:15:50;103815.97;;;12.27;63.50
64388;BME280;50709;52.648;4.764;2023-02-13T03:18:38;103810.28;;;11.97;62.41
64388;BME280;50709;52.648;4.764;2023-02-13T03:27:14;103802.94;;;11.89;63.31
64388;BME280;50709;52.648;4.764;2023-02-13T03:30:17;103805.38;;;12.04;63.42
64388;BME280;50709;52.648;4.764;2023-02-13T03:38:41;103815.06;;;11.48;61.99
64388;BME280;50709;52.648;4.764;2023-02-13T03:41:19;103807.00;;;11.63;63.18
64388;BME280;50709;52.648;4.764;2023-02-13T03:44:10;103778.97;;;11.60;63.66
64388;BME280;50709;52.648;4.764;2023-02-13T03:46:44;103801.94;;;12.05;63.65
64388;BME280;50709;52.648;4.764;2023-02-13T03:49:38;103799.09;;;12.01;64.41
64388;BME280;50709;52.648;4.764;2023-02-13T03:52:29;103805.16;;;12.00;63.47
64388;BME280;50709;52.648;4.764;2023-02-13T03:55:20;103781.69;;;12.01;64.11
64388;BME280;50709;52.648;4.764;2023-02-13T03:58:08;103810.56;;;12.03;63.41
64388;BME280;50709;52.648;4.764;2023-02-13T04:00:57;103803.22;;;11.95;64.02
64388;BME280;50709;52.648;4.764;2023-02-13T04:06:15;103807.50;;;11.54;62.56
64388;BME280;50709;52.648;4.764;2023-02-13T04:08:41;103809.91;;;11.69;63.12
64388;BME280;50709;52.648;4.764;2023-02-13T04:11:13;103802.63;;;11.62;63.29
64388;BME280;50709;52.648;4.764;2023-02-13T04:16:20;103808.75;;;11.25;62.59
64388;BME280;50709;52.648;4.764;2023-02-13T04:19:07;103814.31;;;11.13;64.34
64388;BME280;50709;52.648;4.764;2023-02-13T04:21:34;103792.00;;;10.84;65.07
64388;BME280;50709;52.648;4.764;2023-02-13T04:24:00;103797.78;;;11.14;65.78
64388;BME280;50709;52.648;4.764;2023-02-13T04:26:34;103814.16;;;10.38;62.74
64388;BME280;50709;52.648;4.764;2023-02-13T04:29:00;103815.41;;;9.95;65.39
64388;BME280;50709;52.648;4.764;2023-02-13T04:31:26;103800.25;;;10.22;66.54
64388;BME280;50709;52.648;4.764;2023-02-13T04:33:51;103818.63;;;10.40;64.97
64388;BME280;50709;52.648;4.764;2023-02-13T04:36:16;103797.97;;;10.29;64.72
64388;BME280;50709;52.648;4.764;2023-02-13T04:38:42;103792.50;;;10.24;65.42
64388;BME280;50709;52.648;4.764;2023-02-13T04:41:07;103796.94;;;10.59;67.03
64388;BME280;50709;52.648;4.764;2023-02-13T04:43:33;103811.03;;;10.12;65.51
64388;BME280;50709;52.648;4.764;2023-02-13T04:45:58;103804.22;;;10.32;67.56
64388;BME280;50709;52.648;4.764;2023-02-13T04:48:24;103815.06;;;10.56;67.59
64388;BME280;50709;52.648;4.764;2023-02-13T04:50:49;103803.94;;;10.60;65.87
64388;BME280;50709;52.648;4.764;2023-02-13T04:53:15;103797.28;;;10.49;66.71
64388;BME280;50709;52.648;4.764;2023-02-13T04:55:40;103798.31;;;10.18;67.65
64388;BME280;50709;52.648;4.764;2023-02-13T04:58:26;103807.84;;;10.87;67.17
64388;BME280;50709;52.648;4.764;2023-02-13T05:00:51;103797.59;;;10.55;66.14
64388;BME280;50709;52.648;4.764;2023-02-13T05:03:17;103799.59;;;11.15;66.71
64388;BME280;50709;52.648;4.764;2023-02-13T05:05:42;103781.47;;;11.00;66.57
64388;BME280;50709;52.648;4.764;2023-02-13T05:08:08;103805.28;;;10.88;65.84
64388;BME280;50709;52.648;4.764;2023-02-13T05:10:34;103789.47;;;10.85;66.31
64388;BME280;50709;52.648;4.764;2023-02-13T05:12:59;103763.41;;;10.87;66.51
64388;BME280;50709;52.648;4.764;2023-02-13T05:15:25;103773.75;;;11.03;65.44
64388;BME280;50709;52.648;4.764;2023-02-13T05:17:51;103745.69;;;10.63;65.59
64388;BME280;50709;52.648;4.764;2023-02-13T05:20:17;103783.56;;;10.71;66.59
64388;BME280;50709;52.648;4.764;2023-02-13T05:22:47;103783.22;;;11.01;65.74
64388;BME280;50709;52.648;4.764;2023-02-13T05:25:34;103790.78;;;10.59;65.22
64388;BME280;50709;52.648;4.764;2023-02-13T05:27:59;103793.78;;;10.67;66.82
64388;BME280;50709;52.648;4.764;2023-02-13T05:30:25;103789.91;;;10.76;66.63
64388;BME280;50709;52.648;4.764;2023-02-13T05:32:50;103791.91;;;11.00;65.70
64388;BME280;50709;52.648;4.764;2023-02-13T05:35:17;103794.13;;;11.10;66.02
64388;BME280;50709;52.648;4.764;2023-02-13T05:37:43;103787.06;;;10.90;65.46
64388;BME280;50709;52.648;4.764;2023-02-13T05:40:10;103786.56;;;10.61;65.55
64388;BME280;50709;52.648;4.764;2023-02-13T05:42:37;103759.53;;;9.91;64.50
64388;BME280;50709;52.648;4.764;2023-02-13T05:45:03;103801.59;;;10.14;64.23
64388;BME280;50709;52.648;4.764;2023-02-13T05:47:28;103786.03;;;9.99;64.88
64388;BME280;50709;52.648;4.764;2023-02-13T05:49:54;103792.25;;;10.70;66.84
64388;BME280;50709;52.648;4.764;2023-02-13T05:52:19;103779.31;;;10.73;65.71
64388;BME280;50709;52.648;4.764;2023-02-13T05:54:45;103803.56;;;10.89;66.11
64388;BME280;50709;52.648;4.764;2023-02-13T05:57:10;103795.34;;;10.99;64.70
64388;BME280;50709;52.648;4.764;2023-02-13T05:59:35;103806.03;;;10.86;65.79
64388;BME280;50709;52.648;4.764;2023-02-13T06:02:01;103795.38;;;10.81;66.20
64388;BME280;50709;52.648;4.764;2023-02-13T06:04:26;103770.28;;;10.49;64.50
64388;BME280;50709;52.648;4.764;2023-02-13T06:06:52;103775.59;;;9.99;65.53
64388;BME280;50709;52.648;4.764;2023-02-13T06:09:17;103782.44;;;10.66;66.38
64388;BME280;50709;52.648;4.764;2023-02-13T06:11:43;103777.34;;;10.87;66.08
64388;BME280;50709;52.648;4.764;2023-02-13T06:14:11;103788.56;;;10.85;67.33
64388;BME280;50709;52.648;4.764;2023-02-13T06:16:38;103784.16;;;11.02;67.04
64388;BME280;50709;52.648;4.764;2023-02-13T06:19:03;103787.34;;;10.78;66.52
64388;BME280;50709;52.648;4.764;2023-02-13T06:21:30;103790.75;;;11.31;67.38
64388;BME280;50709;52.648;4.764;2023-02-13T06:23:57;103790.00;;;11.34;67.48
64388;BME280;50709;52.648;4.764;2023-02-13T06:26:23;103770.09;;;11.57;63.32
64388;BME280;50709;52.648;4.764;2023-02-13T06:28:49;103774.41;;;13.72;61.04
64388;BME280;50709;52.648;4.764;2023-02-13T06:31:14;103791.69;;;13.19;60.93
64388;BME280;50709;52.648;4.764;2023-02-13T06:33:40;103785.44;;;12.71;61.85
64388;BME280;50709;52.648;4.764;2023-02-13T06:36:05;103780.44;;;12.34;62.01
64388;BME280;50709;52.648;4.764;2023-02-13T06:38:31;103780.97;;;12.69;62.00
64388;BME280;50709;52.648;4.764;2023-02-13T06:40:59;103791.69;;;12.11;62.03
64388;BME280;50709;52.648;4.764;2023-02-13T06:43:25;103794.59;;;12.60;64.64
64388;BME280;50709;52.648;4.764;2023-02-13T06:45:51;103769.69;;;12.71;63.76
64388;BME280;50709;52.648;4.764;2023-02-13T06:48:18;103785.09;;;12.85;62.08
64388;BME280;50709;52.648;4.764;2023-02-13T06:50:43;103793.72;;;12.38;62.62
64388;BME280;50709;52.648;4.764;2023-02-13T06:53:09;103786.88;;;12.86;63.06
64388;BME280;50709;52.648;4.764;2023-02-13T06:55:35;103790.13;;;13.01;62.41
64388;BME280;50709;52.648;4.764;2023-02-13T06:58:00;103786.88;;;12.86;63.75
64388;BME280;50709;52.648;4.764;2023-02-13T07:00:26;103790.38;;;12.64;61.79
64388;BME280;50709;52.648;4.764;2023-02-13T07:02:51;103780.75;;;11.61;61.48
64388;BME280;50709;52.648;4.764;2023-02-13T07:05:16;103801.97;;;11.48;61.84
64388;BME280;50709;52.648;4.764;2023-02-13T07:07:42;103799.28;;;11.86;63.64
64388;BME280;50709;52.648;4.764;2023-02-13T07:10:11;103800.63;;;11.95;62.32
64388;BME280;50709;52.648;4.764;2023-02-13T07:12:37;103777.34;;;10.87;61.76
64388;BME280;50709;52.648;4.764;2023-02-13T07:15:04;103803.78;;;11.49;63.70
64388;BME280;50709;52.648;4.764;2023-02-13T07:17:29;103817.75;;;11.89;64.99
64388;BME280;50709;52.648;4.764;2023-02-13T07:19:55;103808.88;;;11.85;63.56
64388;BME280;50709;52.648;4.764;2023-02-13T07:22:21;103816.56;;;12.00;63.83
64388;BME280;50709;52.648;4.764;2023-02-13T07:24:46;103810.75;;;11.88;61.03
64388;BME280;50709;52.648;4.764;2023-02-13T07:27:11;103800.47;;;11.53;63.52
64388;BME280;50709;52.648;4.764;2023-02-13T07:29:37;103825.28;;;11.81;61.69
64388;BME280;50709;52.648;4.764;2023-02-13T07:32:02;103827.69;;;11.76;64.59
64388;BME280;50709;52.648;4.764;2023-02-13T07:34:28;103828.09;;;11.86;64.49
64388;BME280;50709;52.648;4.764;2023-02-13T07:36:53;103823.53;;;11.42;63.15
64388;BME280;50709;52.648;4.764;2023-02-13T07:39:19;103811.38;;;12.02;64.45
64388;BME280;50709;52.648;4.764;2023-02-13T07:41:44;103812.41;;;11.66;63.14
64388;BME280;50709;52.648;4.764;2023-02-13T07:44:10;103824.13;;;11.74;62.90
64388;BME280;50709;52.648;4.764;2023-02-13T07:46:35;103827.88;;;11.61;62.97
64388;BME280;50709;52.648;4.764;2023-02-13T07:49:01;103822.50;;;11.78;63.86
64388;BME280;50709;52.648;4.764;2023-02-13T07:51:26;103830.41;;;11.98;62.78
64388;BME280;50709;52.648;4.764;2023-02-13T07:53:53;103816.03;;;11.89;62.84
64388;BME280;50709;52.648;4.764;2023-02-13T07:56:19;103824.16;;;11.37;65.35
64388;BME280;50709;52.648;4.764;2023-02-13T07:58:44;103835.66;;;11.98;64.28
64388;BME280;50709;52.648;4.764;2023-02-13T08:01:13;103832.31;;;12.02;62.73
64388;BME280;50709;52.648;4.764;2023-02-13T08:03:39;103835.88;;;11.65;63.41
64388;BME280;50709;52.648;4.764;2023-02-13T08:06:06;103839.06;;;11.02;63.62
64388;BME280;50709;52.648;4.764;2023-02-13T08:08:32;103816.66;;;11.44;64.99
64388;BME280;50709;52.648;4.764;2023-02-13T08:11:04;103832.56;;;11.49;63.19
64388;BME280;50709;52.648;4.764;2023-02-13T08:13:48;103840.28;;;11.66;64.34
64388;BME280;50709;52.648;4.764;2023-02-13T08:16:14;103812.56;;;11.32;63.96
64388;BME280;50709;52.648;4.764;2023-02-13T08:18:39;103838.94;;;10.99;64.87
64388;BME280;50709;52.648;4.764;2023-02-13T08:21:04;103839.78;;;11.35;65.75
64388;BME280;50709;52.648;4.764;2023-02-13T08:23:30;103846.75;;;10.81;63.96
64388;BME280;50709;52.648;4.764;2023-02-13T08:25:59;103829.25;;;10.80;64.48
64388;BME280;50709;52.648;4.764;2023-02-13T08:28:24;103806.53;;;10.42;63.92
64388;BME280;50709;52.648;4.764;2023-02-13T08:30:50;103836.38;;;11.00;66.41
64388;BME280;50709;52.648;4.764;2023-02-13T08:33:15;103830.34;;;10.32;64.13
64388;BME280;50709;52.648;4.764;2023-02-13T08:35:40;103839.97;;;10.66;66.94
64388;BME280;50709;52.648;4.764;2023-02-13T08:38:06;103845.78;;;10.97;66.83
64388;BME280;50709;52.648;4.764;2023-02-13T08:40:32;103869.06;;;10.56;67.00
64388;BME280;50709;52.648;4.764;2023-02-13T08:43:01;103843.41;;;10.32;65.77
64388;BME280;50709;52.648;4.764;2023-02-13T08:45:27;103843.72;;;10.55;66.20
64388;BME280;50709;52.648;4.764;2023-02-13T08:47:55;103843.78;;;10.38;64.98
64388;BME280;50709;52.648;4.764;2023-02-13T08:50:21;103845.06;;;10.30;66.65
64388;BME280;50709;52.648;4.764;2023-02-13T08:52:46;103841.00;;;10.02;67.97
64388;BME280;50709;52.648;4.764;2023-02-13T08:55:11;103850.50;;;10.00;66.37
64388;BME280;50709;52.648;4.764;2023-02-13T08:57:37;103839.44;;;10.22;65.84
64388;BME280;50709;52.648;4.764;2023-02-13T09:00:03;103832.25;;;10.35;66.74
64388;BME280;50709;52.648;4.764;2023-02-13T09:02:28;103832.97;;;10.32;65.48
64388;BME280;50709;52.648;4.764;2023-02-13T09:04:54;103838.63;;;10.74;66.56
64388;BME280;50709;52.648;4.764;2023-02-13T09:07:19;103831.88;;;10.10;65.83
64388;BME280;50709;52.648;4.764;2023-02-13T09:09:44;103841.47;;;10.28;66.79
64388;BME280;50709;52.648;4.764;2023-02-13T09:12:10;103851.28;;;10.49;66.52
64388;BME280;50709;52.648;4.764;2023-02-13T09:14:35;103840.09;;;10.18;67.12
64388;BME280;50709;52.648;4.764;2023-02-13T09:17:03;103842.13;;;10.93;66.80
64388;BME280;50709;52.648;4.764;2023-02-13T09:19:28;103833.97;;;11.23;66.82
64388;BME280;50709;52.648;4.764;2023-02-13T09:21:54;103836.50;;;10.33;64.78
64388;BME280;50709;52.648;4.764;2023-02-13T09:24:19;103831.28;;;10.33;65.22
64388;BME280;50709;52.648;4.764;2023-02-13T09:26:44;103831.50;;;10.72;67.50
64388;BME280;50709;52.648;4.764;2023-02-13T09:29:09;103823.63;;;10.54;66.83
64388;BME280;50709;52.648;4.764;2023-02-13T09:31:35;103837.94;;;10.97;66.11
64388;BME280;50709;52.648;4.764;2023-02-13T09:34:00;103849.31;;;10.44;66.66
64388;BME280;50709;52.648;4.764;2023-02-13T09:36:26;103831.59;;;10.22;65.91
64388;BME280;50709;52.648;4.764;2023-02-13T09:38:53;103839.25;;;10.52;66.46
64388;BME280;50709;52.648;4.764;2023-02-13T09:41:22;103826.03;;;10.67;66.24
64388;BME280;50709;52.648;4.764;2023-02-13T09:44:15;103854.50;;;10.97;66.82
64388;BME280;50709;52.648;4.764;2023-02-13T09:47:02;103833.81;;;10.48;65.95
64388;BME280;50709;52.648;4.764;2023-02-13T09:49:31;103835.53;;;10.83;68.01
64388;BME280;50709;52.648;4.764;2023-02-13T09:51:58;103822.44;;;11.01;65.97
64388;BME280;50709;52.648;4.764;2023-02-13T09:54:23;103829.63;;;11.23;65.94
64388;BME280;50709;52.648;4.764;2023-02-13T09:56:56;103821.91;;;11.64;65.11
64388;BME280;50709;52.648;4.764;2023-02-13T09:59:49;103837.50;;;12.00;63.98
64388;BME280;50709;52.648;4.764;2023-02-13T10:05:20;103834.53;;;11.35;65.26
64388;BME280;50709;52.648;4.764;2023-02-13T10:10:57;103823.22;;;11.36;64.21
64388;BME280;50709;52.648;4.764;2023-02-13T10:18:46;103775.16;;;11.93;64.21
64388;BME280;50709;52.648;4.764;2023-02-13T10:21:14;103807.66;;;11.77;62.58
64388;BME280;50709;52.648;4.764;2023-02-13T10:24:00;103807.50;;;11.93;62.82
64388;BME280;50709;52.648;4.764;2023-02-13T10:26:34;103801.09;;;11.87;62.65
64388;BME280;50709;52.648;4.764;2023-02-13T10:32:21;103807.28;;;12.08;63.58
64388;BME280;50709;52.648;4.764;2023-02-13T10:34:51;103818.44;;;11.45;62.00
64388;BME280;50709;52.648;4.764;2023-02-13T10:37:19;103800.88;;;11.82;64.64
64388;BME280;50709;52.648;4.764;2023-02-13T10:39:50;103814.13;;;11.28;62.36
64388;BME280;50709;52.648;4.764;2023-02-13T10:42:20;103817.84;;;11.51;64.86
64388;BME280;50709;52.648;4.764;2023-02-13T10:48:10;103814.13;;;11.28;64.28
64388;BME280;50709;52.648;4.764;2023-02-13T10:56:25;103808.81;;;11.26;65.58
64388;BME280;50709;52.648;4.764;2023-02-13T10:59:26;103813.34;;;11.68;65.52
64388;BME280;50709;52.648;4.764;2023-02-13T11:02:08;103806.94;;;11.61;64.56
64388;BME280;50709;52.648;4.764;2023-02-13T11:04:42;103800.09;;;11.26;64.54
64388;BME280;50709;52.648;4.764;2023-02-13T11:07:13;103801.91;;;11.47;63.46
64388;BME280;50709;52.648;4.764;2023-02-13T11:09:41;103786.59;;;11.36;65.23
64388;BME280;50709;52.648;4.764;2023-02-13T11:12:34;103787.66;;;11.40;66.90
64388;BME280;50709;52.648;4.764;2023-02-13T11:15:02;103782.22;;;11.17;64.52
64388;BME280;50709;52.648;4.764;2023-02-13T11:17:31;103790.00;;;11.53;65.50
64388;BME280;50709;52.648;4.764;2023-02-13T11:20:03;103790.13;;;11.37;65.33
64388;BME280;50709;52.648;4.764;2023-02-13T11:22:32;103790.50;;;11.84;65.41
64388;BME280;50709;52.648;4.764;2023-02-13T11:25:05;103765.47;;;11.32;63.67
64388;BME280;50709;52.648;4.764;2023-02-13T11:27:34;103778.38;;;11.09;63.95
64388;BME280;50709;52.648;4.764;2023-02-13T11:30:05;103728.91;;;11.14;65.92
64388;BME280;50709;52.648;4.764;2023-02-13T11:32:32;103734.88;;;11.11;64.62
64388;BME280;50709;52.648;4.764;2023-02-13T11:35:19;103738.66;;;10.80;64.57
64388;BME280;50709;52.648;4.764;2023-02-13T11:38:10;103771.88;;;11.01;65.71
64388;BME280;50709;52.648;4.764;2023-02-13T11:40:36;103765.53;;;10.96;64.86
64388;BME280;50709;52.648;4.764;2023-02-13T11:43:05;103771.59;;;10.76;65.78
64388;BME280;50709;52.648;4.764;2023-02-13T11:45:31;103761.03;;;11.11;66.03
64388;BME280;50709;52.648;4.764;2023-02-13T11:47:57;103778.91;;;11.59;66.18
64388;BME280;50709;52.648;4.764;2023-02-13T11:50:28;103773.00;;;11.43;64.11
64388;BME280;50709;52.648;4.764;2023-02-13T11:53:06;103762.38;;;11.40;65.98
64388;BME280;50709;52.648;4.764;2023-02-13T11:55:34;103783.03;;;11.54;64.32
64388;BME280;50709;52.648;4.764;2023-02-13T12:00:38;103761.13;;;11.32;63.72
64388;BME280;50709;52.648;4.764;2023-02-13T12:06:02;103757.75;;;11.15;64.09
64388;BME280;50709;52.648;4.764;2023-02-13T12:08:29;103751.78;;;11.00;63.82
64388;BME280;50709;52.648;4.764;2023-02-13T12:10:56;103748.91;;;11.13;63.01
64388;BME280;50709;52.648;4.764;2023-02-13T12:13:36;103755.00;;;11.32;63.63
64388;BME280;50709;52.648;4.764;2023-02-13T12:16:11;103749.84;;;11.53;63.02
64388;BME280;50709;52.648;4.764;2023-02-13T12:18:45;103734.34;;;11.38;62.82
64388;BME280;50709;52.648;4.764;2023-02-13T12:35:40;103731.94;;;11.42;65.02
64388;BME280;50709;52.648;4.764;2023-02-13T12:41:27;103713.06;;;11.30;64.69
64388;BME280;50709;52.648;4.764;2023-02-13T12:44:10;103713.22;;;11.14;63.02
64388;BME280;50709;52.648;4.764;2023-02-13T13:01:02;103719.50;;;11.77;64.03
64388;BME280;50709;52.648;4.764;2023-02-13T13:11:50;103716.19;;;11.82;63.30
64388;BME280;50709;52.648;4.764;2023-02-13T13:14:39;103698.03;;;12.27;63.99
64388;BME280;50709;52.648;4.764;2023-02-13T13:17:23;103698.41;;;12.59;63.40
64388;BME280;50709;52.648;4.764;2023-02-13T13:22:32;103685.78;;;11.64;64.10
64388;BME280;50709;52.648;4.764;2023-02-13T13:25:24;103642.53;;;11.74;63.28
64388;BME280;50709;52.648;4.764;2023-02-13T13:30:45;103667.75;;;11.51;64.10
64388;BME280;50709;52.648;4.764;2023-02-13T13:33:17;103643.56;;;11.97;63.07
64388;BME280;50709;52.648;4.764;2023-02-13T13:35:52;103659.25;;;12.18;63.83
64388;BME280;50709;52.648;4.764;2023-02-13T13:41:16;103670.53;;;11.75;62.95
64388;BME280;50709;52.648;4.764;2023-02-13T13:46:49;103659.88;;;12.13;62.23
64388;BME280;50709;52.648;4.764;2023-02-13T13:49:45;103660.81;;;12.15;63.72
64388;BME280;50709;52.648;4.764;2023-02-13T13:52:30;103656.72;;;11.99;62.94
64388;BME280;50709;52.648;4.764;2023-02-13T13:54:58;103639.88;;;11.51;64.09
64388;BME280;50709;52.648;4.764;2023-02-13T14:02:46;103648.69;;;12.38;63.49
64388;BME280;50709;52.648;4.764;2023-02-13T14:07:39;103631.69;;;11.65;64.44
64388;BME280;50709;52.648;4.764;2023-02-13T14:18:18;103629.25;;;12.33;62.83
64388;BME280;50709;52.648;4.764;2023-02-13T14:26:27;103628.66;;;12.40;63.33
64388;BME280;50709;52.648;4.764;2023-02-13T14:29:16;103641.41;;;12.76;62.93
64388;BME280;50709;52.648;4.764;2023-02-13T14:31:58;103585.84;;;12.39;62.71
64388;BME280;50709;52.648;4.764;2023-02-13T14:34:29;103628.44;;;12.13;62.28
64388;BME280;50709;52.648;4.764;2023-02-13T14:37:13;103632.66;;;11.67;63.77
64388;BME280;50709;52.648;4.764;2023-02-13T14:42:36;103606.13;;;11.59;63.09
64388;BME280;50709;52.648;4.764;2023-02-13T14:45:10;103601.59;;;11.34;63.64
64388;BME280;50709;52.648;4.764;2023-02-13T14:47:52;103620.53;;;11.69;64.67
64388;BME280;50709;52.648;4.764;2023-02-13T14:52:50;103600.81;;;11.36;63.74
64388;BME280;50709;52.648;4.764;2023-02-13T14:55:32;103631.88;;;12.33;64.32
64388;BME280;50709;52.648;4.764;2023-02-13T14:58:11;103616.25;;;11.92;62.75
64388;BME280;50709;52.648;4.764;2023-02-13T15:00:43;103617.63;;;12.26;63.67
64388;BME280;50709;52.648;4.764;2023-02-13T15:03:24;103608.44;;;12.15;63.05
64388;BME280;50709;52.648;4.764;2023-02-13T15:05:53;103590.25;;;11.54;63.54
64388;BME280;50709;52.648;4.764;2023-02-13T15:08:21;103611.50;;;11.83;63.82
64388;BME280;50709;52.648;4.764;2023-02-13T15:10:53;103606.97;;;11.79;63.95
64388;BME280;50709;52.648;4.764;2023-02-13T15:18:32;103611.97;;;12.15;63.15
64388;BME280;50709;52.648;4.764;2023-02-13T15:21:00;103601.97;;;12.27;63.30
64388;BME280;50709;52.648;4.764;2023-02-13T15:23:31;103613.88;;;11.98;64.17
64388;BME280;50709;52.648;4.764;2023-02-13T15:26:00;103557.56;;;11.66;62.70
64388;BME280;50709;52.648;4.764;2023-02-13T15:28:27;103599.25;;;12.03;62.26
64388;BME280;50709;52.648;4.764;2023-02-13T15:31:03;103604.78;;;11.90;62.87
64388;BME280;50709;52.648;4.764;2023-02-13T15:33:44;103599.81;;;12.17;61.58
64388;BME280;50709;52.648;4.764;2023-02-13T15:36:39;103606.91;;;12.42;62.94